Time;durP1;ratioP1;P1;durP2;ratioP2;P2;SDS_P1;SDS_P2;PMS_P1;PMS_P2;Temp;Humidity;BMP_temperature;BMP_pressure;BME280_temperature;BME280_humidity;BME280_pressure;Samples;Min_cycle;Max_cycle;Signal;HPM_P1;HPM_P2
2023/10/23 00:01:41;;;;;;;6.17;2.43;;;13.90;99.90;;;;;;4229406;27;20039;-61
2023/10/23 00:03:42;;;;;;;6.55;2.72;;;13.80;99.90;;;;;;4227809;28;20188;-61
2023/10/23 00:05:43;;;;;;;4.30;2.42;;;13.80;99.90;;;;;;4229322;28;20028;-59
2023/10/23 00:07:44;;;;;;;5.22;2.38;;;13.90;99.90;;;;;;4227968;28;20043;-60
2023/10/23 00:09:45;;;;;;;3.67;2.05;;;13.80;99.90;;;;;;4228612;28;20409;-60
2023/10/23 00:11:46;;;;;;;4.70;2.28;;;13.90;99.90;;;;;;4227314;28;20044;-57
2023/10/23 00:13:47;;;;;;;9.85;1.90;;;13.90;99.90;;;;;;4228544;28;20545;-60
2023/10/23 00:15:49;;;;;;;4.13;1.55;;;13.80;99.90;;;;;;4227872;28;20497;-60
2023/10/23 00:17:50;;;;;;;5.95;2.03;;;13.80;99.90;;;;;;4229295;28;20088;-59
2023/10/23 00:19:51;;;;;;;3.58;2.00;;;13.70;99.90;;;;;;4227617;27;20113;-62
2023/10/23 00:21:52;;;;;;;5.03;1.70;;;13.70;99.90;;;;;;4228367;28;20092;-61
2023/10/23 00:23:53;;;;;;;7.05;2.40;;;13.70;99.90;;;;;;4227982;27;20487;-60
2023/10/23 00:25:54;;;;;;;5.30;1.55;;;13.70;99.90;;;;;;4228369;28;20051;-61
2023/10/23 00:27:56;;;;;;;5.85;2.03;;;13.70;99.90;;;;;;4227589;28;20039;-60
2023/10/23 00:29:57;;;;;;;5.00;1.60;;;13.60;99.90;;;;;;4228658;28;20028;-60
2023/10/23 00:31:58;;;;;;;3.97;1.73;;;13.60;99.90;;;;;;4228444;28;20070;-61
2023/10/23 00:33:59;;;;;;;4.35;1.80;;;13.60;99.90;;;;;;4226559;28;20036;-60
2023/10/23 00:36:00;;;;;;;5.50;1.30;;;13.60;99.90;;;;;;4229167;27;20043;-60
2023/10/23 00:38:01;;;;;;;3.35;1.70;;;13.70;99.90;;;;;;4227674;28;20023;-61
2023/10/23 00:40:03;;;;;;;6.57;1.33;;;13.60;99.90;;;;;;4228533;28;20092;-62
2023/10/23 00:42:05;;;;;;;5.05;1.48;;;13.70;99.90;;;;;;4227011;28;20387;-60
2023/10/23 00:44:06;;;;;;;8.05;1.70;;;13.70;99.90;;;;;;4229008;28;20047;-61
2023/10/23 00:46:18;;;;;;;1.88;1.10;;;13.70;99.90;;;;;;4227557;28;20032;-61
2023/10/23 00:48:21;;;;;;;2.85;1.55;;;13.70;99.90;;;;;;4228207;28;20035;-61
2023/10/23 00:50:22;;;;;;;2.25;1.42;;;13.70;99.90;;;;;;4227541;28;20047;-61
2023/10/23 00:52:23;;;;;;;4.03;1.60;;;13.70;99.90;;;;;;4229046;27;20458;-62
2023/10/23 00:54:26;;;;;;;3.10;1.30;;;13.70;99.90;;;;;;4227302;28;20061;-60
2023/10/23 00:56:28;;;;;;;2.55;1.30;;;13.70;99.90;;;;;;4226832;28;20465;-63
2023/10/23 00:58:31;;;;;;;5.65;1.55;;;13.60;99.90;;;;;;4227766;28;20036;-61
2023/10/23 01:00:33;;;;;;;7.05;1.80;;;13.60;99.90;;;;;;4228468;28;20035;-61
2023/10/23 01:02:35;;;;;;;4.55;1.85;;;13.60;99.90;;;;;;4227506;28;20465;-61
2023/10/23 01:04:37;;;;;;;5.78;1.58;;;13.60;99.90;;;;;;4227193;28;20466;-61
2023/10/23 01:06:38;;;;;;;5.68;1.65;;;13.50;99.90;;;;;;4228393;28;20435;-62
2023/10/23 01:08:39;;;;;;;2.25;1.40;;;13.50;99.90;;;;;;4226847;28;20065;-62
2023/10/23 01:10:40;;;;;;;2.45;1.38;;;13.50;99.90;;;;;;4227802;28;20032;-62
2023/10/23 01:12:41;;;;;;;2.80;1.90;;;13.40;99.90;;;;;;4226439;27;20096;-61
2023/10/23 01:14:43;;;;;;;4.70;1.58;;;13.40;99.90;;;;;;4227926;28;20024;-62
2023/10/23 01:16:44;;;;;;;4.23;2.00;;;13.30;99.90;;;;;;4226615;27;20036;-60
2023/10/23 01:18:45;;;;;;;3.20;2.72;;;13.20;99.90;;;;;;4226916;28;20040;-62
2023/10/23 01:20:47;;;;;;;7.80;2.60;;;13.20;99.90;;;;;;4226011;28;20411;-61
2023/10/23 01:22:48;;;;;;;11.30;2.70;;;13.10;99.90;;;;;;4227793;28;20069;-61
2023/10/23 01:24:51;;;;;;;5.93;2.63;;;13.00;99.90;;;;;;4225689;28;20047;-62
2023/10/23 01:26:52;;;;;;;7.63;3.33;;;13.00;99.90;;;;;;4227741;28;20106;-61
2023/10/23 01:28:54;;;;;;;5.20;3.20;;;12.90;99.90;;;;;;4227175;27;20112;-59
2023/10/23 01:30:55;;;;;;;6.73;2.47;;;12.80;99.90;;;;;;4227247;28;20027;-62
2023/10/23 01:32:56;;;;;;;6.77;2.30;;;12.80;99.90;;;;;;4226920;28;20051;-62
2023/10/23 01:34:57;;;;;;;9.20;3.03;;;12.80;99.90;;;;;;4225857;28;20088;-61
2023/10/23 01:36:58;;;;;;;6.57;2.40;;;12.80;99.90;;;;;;4211007;28;20024;-63
2023/10/23 01:39:00;;;;;;;4.50;2.67;;;12.70;99.90;;;;;;4224424;28;20426;-62
2023/10/23 01:41:01;;;;;;;7.40;2.70;;;12.70;99.90;;;;;;4226756;28;20100;-62
2023/10/23 01:43:02;;;;;;;4.97;2.73;;;12.70;99.90;;;;;;4226125;28;20081;-63
2023/10/23 01:45:03;;;;;;;5.10;2.67;;;12.70;99.90;;;;;;4227558;28;20437;-63
2023/10/23 01:47:05;;;;;;;5.30;2.23;;;12.70;99.90;;;;;;4225290;28;20097;-62
2023/10/23 01:49:06;;;;;;;4.17;2.50;;;12.70;99.90;;;;;;4228036;27;20036;-56
2023/10/23 01:51:07;;;;;;;6.43;2.60;;;12.60;99.90;;;;;;4225689;28;20066;-62
2023/10/23 01:53:08;;;;;;;5.97;2.50;;;12.70;99.90;;;;;;4227910;27;20492;-60
2023/10/23 01:55:09;;;;;;;4.63;2.17;;;12.60;99.90;;;;;;4226601;28;20036;-60
2023/10/23 01:57:13;;;;;;;6.77;2.00;;;12.60;99.90;;;;;;4227083;28;20116;-61
2023/10/23 01:59:15;;;;;;;5.40;2.57;;;12.60;99.90;;;;;;4226095;28;20031;-60
2023/10/23 02:01:23;;;;;;;5.10;2.20;;;12.60;99.90;;;;;;4227130;28;20081;-60
2023/10/23 02:03:24;;;;;;;6.80;2.10;;;12.60;99.90;;;;;;4226245;28;20104;-61
2023/10/23 02:05:25;;;;;;;3.90;2.30;;;12.60;99.90;;;;;;4227177;28;20047;-61
2023/10/23 02:07:27;;;;;;;3.33;2.73;;;12.60;99.90;;;;;;4227458;28;20032;-61
2023/10/23 02:09:28;;;;;;;2.63;1.90;;;12.60;99.90;;;;;;4226157;28;20081;-62
2023/10/23 02:11:30;;;;;;;4.37;2.30;;;12.60;99.90;;;;;;4226615;28;20488;-61
2023/10/23 02:13:31;;;;;;;4.20;1.90;;;12.60;99.90;;;;;;4226133;28;20027;-59
2023/10/23 02:15:32;;;;;;;8.87;2.33;;;12.60;99.90;;;;;;4227032;28;20100;-59
2023/10/23 02:17:33;;;;;;;6.27;1.77;;;12.60;99.90;;;;;;4225977;28;20372;-62
2023/10/23 02:19:34;;;;;;;3.63;2.00;;;12.60;99.90;;;;;;4226616;28;20054;-61
2023/10/23 02:21:36;;;;;;;5.73;2.20;;;12.50;99.90;;;;;;4226893;28;20127;-62
2023/10/23 02:23:37;;;;;;;3.80;2.30;;;12.50;99.90;;;;;;4226864;28;20065;-60
2023/10/23 02:25:38;;;;;;;7.13;2.37;;;12.40;99.90;;;;;;4226117;28;20381;-61
2023/10/23 02:27:39;;;;;;;4.77;2.30;;;12.40;99.90;;;;;;4227531;28;20027;-61
2023/10/23 02:29:40;;;;;;;3.70;2.10;;;12.40;99.90;;;;;;4226422;28;20089;-62
2023/10/23 02:31:42;;;;;;;5.60;1.93;;;12.40;99.90;;;;;;4225598;28;20077;-61
2023/10/23 02:33:43;;;;;;;3.43;2.37;;;12.40;99.90;;;;;;4226121;28;20039;-62
2023/10/23 02:35:44;;;;;;;5.33;2.30;;;12.40;99.90;;;;;;4227105;28;20085;-61
2023/10/23 02:37:45;;;;;;;4.27;1.83;;;12.30;99.90;;;;;;4226925;28;20020;-62
2023/10/23 02:39:46;;;;;;;3.07;1.90;;;12.30;99.90;;;;;;4226133;28;20040;-62
2023/10/23 02:41:48;;;;;;;6.07;1.83;;;12.30;99.90;;;;;;4226751;28;20756;-60
2023/10/23 02:43:52;;;;;;;5.80;2.30;;;12.30;99.90;;;;;;4226077;28;20040;-60
2023/10/23 02:45:53;;;;;;;9.10;2.63;;;12.30;99.90;;;;;;4225515;28;20450;-60
2023/10/23 02:47:54;;;;;;;6.50;1.87;;;12.30;99.90;;;;;;4226120;28;20511;-60
2023/10/23 02:49:55;;;;;;;3.97;1.90;;;12.30;99.90;;;;;;4227275;28;20477;-60
2023/10/23 02:51:56;;;;;;;4.30;1.83;;;12.30;99.90;;;;;;4225363;28;20472;-60
2023/10/23 02:53:58;;;;;;;2.27;1.67;;;12.30;99.90;;;;;;4224464;28;20080;-62
2023/10/23 02:55:59;;;;;;;4.53;2.07;;;12.20;99.90;;;;;;4224937;28;20422;-61
2023/10/23 02:58:00;;;;;;;3.03;1.97;;;12.20;99.90;;;;;;4227226;28;20035;-62
2023/10/23 03:00:05;;;;;;;7.30;2.00;;;12.20;99.90;;;;;;4225973;28;20456;-62
2023/10/23 03:02:06;;;;;;;1.93;1.60;;;12.20;99.90;;;;;;4226671;28;20080;-62
2023/10/23 03:04:07;;;;;;;2.23;2.03;;;12.10;99.90;;;;;;4226230;28;20506;-61
2023/10/23 03:06:08;;;;;;;3.47;1.90;;;12.10;99.90;;;;;;4226973;28;20422;-62
2023/10/23 03:08:09;;;;;;;7.23;1.80;;;12.10;99.90;;;;;;4226454;28;20036;-61
2023/10/23 03:10:10;;;;;;;4.63;1.97;;;12.10;99.90;;;;;;4224933;28;20052;-61
2023/10/23 03:12:12;;;;;;;3.20;1.90;;;12.10;99.90;;;;;;4229388;27;20032;-60
2023/10/23 03:14:13;;;;;;;4.03;2.27;;;12.10;99.90;;;;;;4229654;27;20101;-61
2023/10/23 03:16:14;;;;;;;6.20;2.57;;;12.10;99.90;;;;;;4229917;28;20032;-61
2023/10/23 03:18:15;;;;;;;2.43;1.83;;;12.00;99.90;;;;;;4227558;27;20093;-60
2023/10/23 03:20:17;;;;;;;4.47;1.97;;;12.00;99.90;;;;;;4229476;28;20104;-60
2023/10/23 03:22:18;;;;;;;2.70;2.20;;;12.00;99.90;;;;;;4229114;28;20048;-61
2023/10/23 03:24:19;;;;;;;6.10;2.53;;;12.00;99.90;;;;;;4229389;28;20044;-60
2023/10/23 03:26:20;;;;;;;4.87;2.40;;;12.00;99.90;;;;;;4228290;28;20043;-60
2023/10/23 03:28:22;;;;;;;3.87;1.67;;;11.90;99.90;;;;;;4230124;28;20077;-60
2023/10/23 03:30:23;;;;;;;5.17;2.20;;;11.90;99.90;;;;;;4228821;28;20073;-60
2023/10/23 03:32:25;;;;;;;3.23;1.67;;;11.90;99.90;;;;;;4229524;28;20375;-59
2023/10/23 03:34:26;;;;;;;4.30;2.10;;;11.90;99.90;;;;;;4228627;27;20054;-60
2023/10/23 03:36:27;;;;;;;5.23;1.90;;;11.90;99.90;;;;;;4228267;28;20104;-60
2023/10/23 03:38:28;;;;;;;6.20;1.70;;;11.90;99.90;;;;;;4228040;27;20043;-59
2023/10/23 03:40:29;;;;;;;3.87;2.00;;;11.80;99.90;;;;;;4227334;28;20044;-60
2023/10/23 03:42:30;;;;;;;3.83;2.40;;;11.80;99.90;;;;;;4229015;28;20027;-60
2023/10/23 03:44:31;;;;;;;5.00;2.00;;;11.80;99.90;;;;;;4228706;28;20085;-60
2023/10/23 03:46:33;;;;;;;3.77;2.27;;;11.80;99.90;;;;;;4228665;27;20043;-60
2023/10/23 03:48:37;;;;;;;3.43;1.97;;;11.70;99.90;;;;;;4228109;28;20032;-60
2023/10/23 03:50:38;;;;;;;5.17;2.63;;;11.70;99.90;;;;;;4229004;28;20475;-61
2023/10/23 03:52:39;;;;;;;3.33;2.07;;;11.60;99.90;;;;;;4228201;28;20077;-59
2023/10/23 03:54:40;;;;;;;6.70;3.33;;;11.60;99.90;;;;;;4228394;28;20065;-60
2023/10/23 03:56:41;;;;;;;6.07;3.10;;;11.50;99.90;;;;;;4228388;28;20028;-61
2023/10/23 03:58:46;;;;;;;8.33;2.77;;;11.50;99.90;;;;;;4229567;28;20073;-60
2023/10/23 04:00:51;;;;;;;7.60;3.10;;;11.40;99.90;;;;;;4228444;28;20056;-60
2023/10/23 04:02:52;;;;;;;5.77;2.30;;;11.40;99.90;;;;;;4229264;27;20104;-60
2023/10/23 04:04:53;;;;;;;5.87;2.60;;;11.40;99.90;;;;;;4227691;28;20047;-61
2023/10/23 04:06:54;;;;;;;3.20;1.93;;;11.30;99.90;;;;;;4228943;28;20043;-62
2023/10/23 04:08:55;;;;;;;6.47;2.30;;;11.30;99.90;;;;;;4227912;28;20437;-62
2023/10/23 04:10:58;;;;;;;2.33;1.73;;;11.30;99.90;;;;;;4228979;28;20023;-60
2023/10/23 04:12:59;;;;;;;3.27;1.73;;;11.30;99.90;;;;;;4224159;27;20039;-60
2023/10/23 04:15:00;;;;;;;4.27;2.33;;;11.30;99.90;;;;;;4211413;28;20028;-61
2023/10/23 04:17:02;;;;;;;3.60;1.70;;;11.30;99.90;;;;;;4212043;28;20028;-61
2023/10/23 04:19:03;;;;;;;6.47;2.23;;;11.40;99.90;;;;;;4227107;27;20112;-61
2023/10/23 04:21:07;;;;;;;2.63;1.77;;;11.30;99.90;;;;;;4228687;28;20047;-59
2023/10/23 04:23:08;;;;;;;4.53;2.10;;;11.30;99.90;;;;;;4225531;28;20100;-60
2023/10/23 04:25:09;;;;;;;3.73;2.20;;;11.30;99.90;;;;;;4228290;28;20108;-60
2023/10/23 04:27:10;;;;;;;7.90;3.30;;;11.30;99.90;;;;;;4227488;28;20088;-60
2023/10/23 04:29:12;;;;;;;8.10;5.23;;;11.30;99.90;;;;;;4227856;28;20085;-60
2023/10/23 04:31:13;;;;;;;14.87;5.90;;;11.30;99.90;;;;;;4228047;28;20076;-60
2023/10/23 04:33:21;;;;;;;10.53;5.40;;;11.20;99.90;;;;;;4228262;28;20438;-60
2023/10/23 04:35:22;;;;;;;11.17;4.73;;;11.00;99.90;;;;;;4226558;28;20813;-60
2023/10/23 04:37:23;;;;;;;16.07;5.57;;;10.90;99.90;;;;;;4228644;28;20108;-60
2023/10/23 04:39:24;;;;;;;13.07;5.50;;;10.80;99.90;;;;;;4227682;27;20084;-61
2023/10/23 04:41:25;;;;;;;12.97;4.77;;;10.70;99.90;;;;;;4224109;28;20372;-60
2023/10/23 04:43:26;;;;;;;16.70;6.20;;;10.50;99.90;;;;;;4227631;27;20040;-59
2023/10/23 04:45:28;;;;;;;9.83;4.57;;;10.50;99.90;;;;;;4227824;27;20131;-59
2023/10/23 04:47:29;;;;;;;10.10;4.57;;;10.50;99.90;;;;;;4227323;28;20150;-58
2023/10/23 04:49:30;;;;;;;11.87;4.27;;;10.50;99.90;;;;;;4227252;28;20489;-59
2023/10/23 04:51:33;;;;;;;8.77;3.90;;;10.50;99.90;;;;;;4226730;28;20043;-59
2023/10/23 04:53:34;;;;;;;15.63;4.57;;;10.40;99.90;;;;;;4227497;28;20023;-59
2023/10/23 04:55:38;;;;;;;14.27;4.63;;;10.40;99.90;;;;;;4228390;28;20080;-59
2023/10/23 04:57:39;;;;;;;11.63;4.87;;;10.40;99.90;;;;;;4224966;28;20139;-61
2023/10/23 04:59:40;;;;;;;11.33;4.37;;;10.40;99.90;;;;;;4226698;28;20078;-59
2023/10/23 05:01:41;;;;;;;9.10;4.60;;;10.40;99.90;;;;;;4226220;28;20043;-61
2023/10/23 05:03:42;;;;;;;10.33;5.47;;;10.40;99.90;;;;;;4227910;28;20423;-61
2023/10/23 05:05:47;;;;;;;16.53;5.93;;;10.40;99.90;;;;;;4215566;28;20048;-58
2023/10/23 05:07:49;;;;;;;14.70;4.83;;;10.30;99.90;;;;;;4223325;28;20035;-60
2023/10/23 05:09:50;;;;;;;16.93;5.33;;;10.40;99.90;;;;;;4225022;28;20048;-60
2023/10/23 05:11:51;;;;;;;10.03;4.80;;;10.40;99.90;;;;;;4228406;27;20039;-61
2023/10/23 05:13:52;;;;;;;7.53;4.63;;;10.40;99.90;;;;;;4227215;28;20365;-60
2023/10/23 05:15:53;;;;;;;17.00;5.87;;;10.40;99.90;;;;;;4228319;27;20043;-59
2023/10/23 05:17:54;;;;;;;12.03;4.90;;;10.50;99.90;;;;;;4226412;28;20484;-59
2023/10/23 05:19:56;;;;;;;12.13;5.70;;;10.50;99.90;;;;;;4226774;28;20112;-60
2023/10/23 05:21:57;;;;;;;13.50;5.90;;;10.50;99.90;;;;;;4226586;28;20044;-60
2023/10/23 05:23:58;;;;;;;12.27;4.87;;;10.60;99.90;;;;;;4225520;28;20052;-60
2023/10/23 05:25:59;;;;;;;8.73;5.43;;;10.70;99.90;;;;;;4227077;28;20445;-59
2023/10/23 05:28:00;;;;;;;9.27;5.87;;;10.80;99.90;;;;;;4225699;28;20076;-59
2023/10/23 05:30:03;;;;;;;12.57;6.43;;;10.80;99.90;;;;;;4227801;28;20087;-61
2023/10/23 05:32:05;;;;;;;15.03;6.50;;;10.90;99.90;;;;;;4226808;28;20437;-61
2023/10/23 05:34:06;;;;;;;12.83;6.70;;;11.10;99.90;;;;;;4226933;28;20039;-60
2023/10/23 05:36:09;;;;;;;18.53;5.90;;;11.10;99.90;;;;;;4225914;28;20027;-61
2023/10/23 05:38:10;;;;;;;16.57;7.10;;;11.30;99.90;;;;;;4226898;28;20032;-61
2023/10/23 05:40:11;;;;;;;23.07;7.07;;;11.50;99.90;;;;;;4225078;28;20035;-62
2023/10/23 05:42:13;;;;;;;20.73;8.20;;;11.60;99.90;;;;;;4226795;28;20036;-62
2023/10/23 05:44:15;;;;;;;25.50;8.33;;;11.60;99.90;;;;;;4226424;27;20036;-61
2023/10/23 05:46:20;;;;;;;17.47;6.93;;;11.70;99.90;;;;;;4225626;28;20043;-62
2023/10/23 05:48:22;;;;;;;34.27;10.07;;;11.80;99.90;;;;;;4226733;28;20350;-60
2023/10/23 05:50:23;;;;;;;35.83;10.60;;;12.00;99.90;;;;;;4227351;27;20039;-60
2023/10/23 05:52:24;;;;;;;21.50;8.23;;;12.10;99.90;;;;;;4227148;28;20024;-60
2023/10/23 05:54:25;;;;;;;33.83;12.00;;;12.10;99.90;;;;;;4226559;27;20100;-61
2023/10/23 05:56:26;;;;;;;22.67;8.93;;;12.20;99.90;;;;;;4228174;27;20116;-60
2023/10/23 05:58:27;;;;;;;17.87;7.83;;;12.50;99.90;;;;;;4226941;28;20434;-60
2023/10/23 06:00:29;;;;;;;31.17;9.03;;;13.00;99.90;;;;;;4227906;28;20084;-60
2023/10/23 06:02:30;;;;;;;30.97;11.67;;;13.50;99.90;;;;;;4226476;28;20079;-60
2023/10/23 06:04:31;;;;;;;43.85;17.73;;;14.00;99.90;;;;;;4227459;28;20040;-60
2023/10/23 06:06:32;;;;;;;21.10;7.65;;;14.50;99.90;;;;;;4226745;27;20110;-60
2023/10/23 06:08:34;;;;;;;15.45;5.93;;;14.80;99.90;;;;;;4227510;28;20028;-60
2023/10/23 06:10:43;;;;;;;17.10;5.43;;;14.70;99.90;;;;;;4226680;28;20092;-60
2023/10/23 06:12:44;;;;;;;21.38;5.65;;;14.50;99.90;;;;;;4227724;28;20040;-60
2023/10/23 06:14:45;;;;;;;24.88;5.57;;;14.50;99.90;;;;;;4226241;28;20441;-60
2023/10/23 06:16:46;;;;;;;21.38;6.38;;;14.40;99.90;;;;;;4227417;28;20483;-60
2023/10/23 06:18:47;;;;;;;16.25;5.82;;;14.60;99.90;;;;;;4226379;28;20099;-60
2023/10/23 06:20:57;;;;;;;13.27;5.45;;;14.80;99.90;;;;;;4227003;28;20418;-60
2023/10/23 06:22:59;;;;;;;14.38;5.15;;;15.20;99.90;;;;;;4226643;28;20088;-60
2023/10/23 06:25:00;;;;;;;11.70;4.97;;;15.70;99.90;;;;;;4226649;28;20101;-60
2023/10/23 06:27:02;;;;;;;8.13;4.60;;;16.00;99.90;;;;;;4226727;28;20064;-60
2023/10/23 06:29:03;;;;;;;10.25;4.15;;;16.10;99.90;;;;;;4226683;28;20649;-60
2023/10/23 06:31:09;;;;;;;12.75;4.25;;;16.10;99.90;;;;;;4227019;28;20047;-59
2023/10/23 06:33:10;;;;;;;6.32;3.90;;;16.20;99.90;;;;;;4226065;28;20429;-60
2023/10/23 06:35:11;;;;;;;11.20;4.32;;;16.30;99.90;;;;;;4227571;28;20027;-60
2023/10/23 06:37:12;;;;;;;8.88;4.20;;;16.40;99.90;;;;;;4226171;28;20466;-60
2023/10/23 06:39:13;;;;;;;7.65;3.97;;;16.40;99.90;;;;;;4227407;28;20019;-60
2023/10/23 06:41:15;;;;;;;9.93;5.22;;;16.50;99.90;;;;;;4226132;28;20039;-59
2023/10/23 06:43:16;;;;;;;12.20;5.80;;;16.70;99.90;;;;;;4227445;28;20077;-59
2023/10/23 06:45:17;;;;;;;12.13;5.43;;;16.80;99.90;;;;;;4226369;28;20093;-60
2023/10/23 06:47:19;;;;;;;12.82;5.35;;;16.90;99.90;;;;;;4230044;28;20084;-60
2023/10/23 06:49:20;;;;;;;16.00;5.47;;;17.00;99.90;;;;;;4229591;27;20483;-59
2023/10/23 06:51:21;;;;;;;14.07;5.32;;;17.00;99.90;;;;;;4230707;28;20088;-60
2023/10/23 06:53:22;;;;;;;12.48;4.97;;;16.70;99.90;;;;;;4229234;28;20893;-60
2023/10/23 06:55:24;;;;;;;7.05;4.25;;;16.40;99.90;;;;;;4230027;28;20357;-61
2023/10/23 06:57:25;;;;;;;10.68;4.22;;;16.70;99.90;;;;;;4229694;28;20437;-59
2023/10/23 06:59:28;;;;;;;11.10;4.05;;;16.90;99.90;;;;;;4229935;27;20040;-62
2023/10/23 07:01:29;;;;;;;15.88;4.00;;;17.20;99.90;;;;;;4229858;28;20497;-61
2023/10/23 07:03:30;;;;;;;7.60;3.42;;;17.40;99.90;;;;;;4229077;28;20132;-62
2023/10/23 07:05:31;;;;;;;6.45;3.45;;;17.60;99.90;;;;;;4229924;28;20047;-61
2023/10/23 07:07:32;;;;;;;3.58;2.63;;;17.60;99.90;;;;;;4228984;28;20475;-61
2023/10/23 07:09:33;;;;;;;5.85;3.10;;;17.40;99.90;;;;;;4230080;27;20100;-61
2023/10/23 07:11:35;;;;;;;5.03;2.92;;;17.40;99.90;;;;;;4229218;27;20043;-61
2023/10/23 07:13:36;;;;;;;5.25;2.88;;;17.80;99.90;;;;;;4230069;28;20472;-61
2023/10/23 07:15:39;;;;;;;12.13;3.00;;;18.00;99.90;;;;;;4228965;27;20076;-61
2023/10/23 07:17:40;;;;;;;6.22;2.70;;;18.30;99.90;;;;;;4230097;27;20051;-61
2023/10/23 07:19:41;;;;;;;8.40;2.97;;;18.60;99.90;;;;;;4228840;28;20027;-61
2023/10/23 07:21:42;;;;;;;10.82;2.85;;;18.50;99.90;;;;;;4229741;28;20024;-61
2023/10/23 07:23:43;;;;;;;4.97;2.22;;;18.60;99.90;;;;;;4228841;28;20031;-60
2023/10/23 07:25:44;;;;;;;5.30;2.75;;;18.60;99.90;;;;;;4229119;28;20116;-61
2023/10/23 07:27:45;;;;;;;4.82;2.92;;;18.60;99.90;;;;;;4229329;27;20036;-60
2023/10/23 07:29:47;;;;;;;5.68;3.75;;;18.90;99.90;;;;;;4229168;27;20043;-60
2023/10/23 07:31:48;;;;;;;6.32;3.97;;;19.00;99.90;;;;;;4229388;28;20032;-61
2023/10/23 07:33:50;;;;;;;7.38;3.53;;;19.10;99.90;;;;;;4228885;27;20040;-60
2023/10/23 07:36:02;;;;;;;10.05;3.60;;;19.20;99.90;;;;;;4229951;27;20039;-60
2023/10/23 07:38:03;;;;;;;6.80;3.95;;;19.20;99.90;;;;;;4228330;28;20027;-61
2023/10/23 07:40:05;;;;;;;8.07;4.57;;;19.20;99.90;;;;;;4229630;28;20019;-60
2023/10/23 07:42:06;;;;;;;11.02;4.88;;;19.30;99.90;;;;;;4228619;28;20101;-61
2023/10/23 07:44:07;;;;;;;5.68;3.55;;;19.60;99.90;;;;;;4229697;28;20092;-60
2023/10/23 07:46:10;;;;;;;10.50;3.55;;;19.60;99.90;;;;;;4228524;28;20183;-60
2023/10/23 07:48:11;;;;;;;9.40;3.60;;;19.40;99.90;;;;;;4229568;28;20031;-60
2023/10/23 07:50:12;;;;;;;12.18;4.28;;;19.50;99.90;;;;;;4228286;28;20544;-60
2023/10/23 07:52:13;;;;;;;8.95;3.40;;;19.40;99.90;;;;;;4229718;28;20425;-60
2023/10/23 07:54:14;;;;;;;16.65;4.65;;;19.20;99.90;;;;;;4228399;27;20043;-60
2023/10/23 07:56:15;;;;;;;13.13;4.57;;;19.00;99.90;;;;;;4229629;27;20040;-61
2023/10/23 07:58:17;;;;;;;15.38;3.67;;;18.60;99.90;;;;;;4228566;27;20483;-61
2023/10/23 08:00:18;;;;;;;8.30;3.95;;;18.20;99.90;;;;;;4227532;27;20040;-60
2023/10/23 08:02:19;;;;;;;6.55;2.58;;;17.60;99.90;;;;;;4227854;28;20077;-61
2023/10/23 08:04:20;;;;;;;6.93;2.50;;;17.40;99.90;;;;;;4228436;27;20039;-61
2023/10/23 08:06:21;;;;;;;10.40;3.83;;;17.40;99.90;;;;;;4228292;28;20099;-61
2023/10/23 08:08:23;;;;;;;10.93;5.22;;;17.50;99.90;;;;;;4228130;27;20132;-61
2023/10/23 08:10:24;;;;;;;13.52;5.20;;;17.40;99.90;;;;;;4228811;27;20039;-61
2023/10/23 08:12:25;;;;;;;8.52;4.40;;;17.30;99.90;;;;;;4228065;27;20031;-61
2023/10/23 08:14:26;;;;;;;6.80;3.22;;;17.20;99.90;;;;;;4228858;28;20092;-60
2023/10/23 08:16:27;;;;;;;4.47;2.53;;;17.10;99.90;;;;;;4227781;28;20036;-61
2023/10/23 08:18:29;;;;;;;3.67;2.33;;;17.00;99.90;;;;;;4227578;28;20387;-61
2023/10/23 08:20:30;;;;;;;6.55;2.85;;;17.10;99.90;;;;;;4227858;27;20039;-61
2023/10/23 08:22:31;;;;;;;7.15;2.45;;;17.20;99.90;;;;;;4228613;28;20023;-60
2023/10/23 08:24:32;;;;;;;3.20;2.08;;;17.40;99.90;;;;;;4227541;28;20023;-61
2023/10/23 08:26:33;;;;;;;8.55;2.13;;;17.30;99.90;;;;;;4228319;28;20043;-62
2023/10/23 08:28:35;;;;;;;6.50;1.80;;;17.40;99.90;;;;;;4227808;27;20047;-61
2023/10/23 08:30:36;;;;;;;4.07;1.92;;;17.50;99.90;;;;;;4228333;28;20081;-62
2023/10/23 08:32:37;;;;;;;7.07;2.42;;;17.50;99.90;;;;;;4228045;27;20391;-62
2023/10/23 08:34:38;;;;;;;4.85;1.63;;;17.90;99.90;;;;;;4227877;28;20809;-61
2023/10/23 08:36:39;;;;;;;4.88;2.13;;;18.00;99.90;;;;;;4228275;27;20036;-60
2023/10/23 08:38:40;;;;;;;2.70;1.10;;;17.90;99.90;;;;;;4227307;28;20039;-63
2023/10/23 08:40:41;;;;;;;3.03;1.33;;;18.00;99.90;;;;;;4228374;28;20027;-61
2023/10/23 08:42:43;;;;;;;3.17;1.52;;;18.00;99.90;;;;;;4226960;28;20092;-61
2023/10/23 08:44:45;;;;;;;3.25;1.40;;;18.00;99.90;;;;;;4228081;28;20765;-61
2023/10/23 08:46:48;;;;;;;1.23;0.82;;;17.90;99.90;;;;;;4227049;28;20560;-61
2023/10/23 08:48:50;;;;;;;2.25;1.60;;;18.00;99.90;;;;;;4228006;28;20040;-61
2023/10/23 08:50:51;;;;;;;6.25;2.45;;;18.10;99.90;;;;;;4227272;28;20077;-60
2023/10/23 08:53:04;;;;;;;4.03;1.25;;;18.20;99.90;;;;;;4228349;28;20043;-61
2023/10/23 08:55:11;;;;;;;3.20;0.98;;;18.10;99.90;;;;;;4226927;28;20031;-62
2023/10/23 08:57:14;;;;;;;2.63;1.17;;;18.20;99.90;;;;;;4228529;27;20043;-61
2023/10/23 08:59:16;;;;;;;2.92;0.85;;;18.20;99.90;;;;;;4226842;27;20040;-61
2023/10/23 09:01:18;;;;;;;2.03;0.98;;;18.10;99.90;;;;;;4228264;28;20035;-61
2023/10/23 09:03:20;;;;;;;3.10;1.10;;;18.20;99.90;;;;;;4226915;28;20039;-61
2023/10/23 09:05:21;;;;;;;4.03;0.77;;;18.20;99.90;;;;;;4227677;28;20028;-62
2023/10/23 09:07:22;;;;;;;1.10;0.80;;;18.20;99.90;;;;;;4227043;28;20280;-61
2023/10/23 09:09:25;;;;;;;4.38;0.82;;;17.90;99.90;;;;;;4226422;28;20108;-61
2023/10/23 09:11:38;;;;;;;3.90;0.77;;;17.90;99.90;;;;;;4227578;27;20089;-61
2023/10/23 09:13:40;;;;;;;4.00;0.60;;;18.10;99.90;;;;;;4227468;28;20050;-61
2023/10/23 09:15:49;;;;;;;1.88;0.85;;;18.10;99.90;;;;;;4227699;28;20431;-62
2023/10/23 09:17:51;;;;;;;2.67;0.80;;;18.20;99.90;;;;;;4227394;28;20073;-61
2023/10/23 09:19:52;;;;;;;2.92;0.93;;;18.30;99.90;;;;;;4227660;28;20088;-61
2023/10/23 09:21:57;;;;;;;4.43;0.93;;;18.30;99.90;;;;;;4227015;27;20032;-61
2023/10/23 09:24:00;;;;;;;2.53;0.90;;;18.40;99.90;;;;;;4227833;28;20069;-61
2023/10/23 09:26:01;;;;;;;2.53;0.90;;;18.40;99.90;;;;;;4226724;28;20380;-61
2023/10/23 09:28:10;;;;;;;3.65;0.95;;;18.50;99.90;;;;;;4227871;28;20031;-60
2023/10/23 09:30:13;;;;;;;3.25;1.02;;;18.60;99.90;;;;;;4226848;28;20040;-61
2023/10/23 09:32:14;;;;;;;1.77;1.08;;;18.60;99.90;;;;;;4228108;28;20572;-60
2023/10/23 09:34:18;;;;;;;1.45;1.23;;;18.60;99.90;;;;;;4226790;28;20061;-61
2023/10/23 09:36:20;;;;;;;6.45;1.40;;;18.60;99.90;;;;;;4228248;27;20159;-61
2023/10/23 09:38:23;;;;;;;2.65;1.02;;;18.80;99.90;;;;;;4226680;28;20077;-62
2023/10/23 09:40:24;;;;;;;6.10;1.55;;;18.80;99.90;;;;;;4227758;27;20069;-61
2023/10/23 09:42:32;;;;;;;3.50;1.10;;;18.90;99.90;;;;;;4226728;28;20039;-62
2023/10/23 09:44:36;;;;;;;4.18;1.20;;;18.90;99.90;;;;;;4228035;27;20611;-61
2023/10/23 09:46:38;;;;;;;3.72;2.05;;;18.90;99.90;;;;;;4226407;28;20035;-60
2023/10/23 09:48:43;;;;;;;2.35;1.15;;;18.80;99.90;;;;;;4227284;28;20368;-60
2023/10/23 09:50:49;;;;;;;4.72;2.30;;;18.80;99.90;;;;;;4226782;28;20028;-61
2023/10/23 09:52:51;;;;;;;3.22;0.88;;;18.90;99.90;;;;;;4227046;28;20118;-61
2023/10/23 09:55:03;;;;;;;1.52;0.73;;;19.00;99.90;;;;;;4226947;28;20035;-61
2023/10/23 09:57:07;;;;;;;3.05;1.70;;;19.10;99.90;;;;;;4227221;28;20032;-61
2023/10/23 09:59:11;;;;;;;1.02;0.80;;;19.30;99.90;;;;;;4227052;28;20023;-61
2023/10/23 10:01:14;;;;;;;1.65;0.70;;;19.30;99.90;;;;;;4227190;28;20031;-60
2023/10/23 10:03:20;;;;;;;1.95;0.70;;;19.40;99.90;;;;;;4227493;28;20080;-60
2023/10/23 10:05:32;;;;;;;4.13;0.98;;;19.40;99.90;;;;;;4226369;28;20463;-60
2023/10/23 10:07:56;;;;;;;4.15;1.27;;;19.50;99.90;;;;;;4227252;28;20452;-60
2023/10/23 10:09:57;;;;;;;3.63;0.98;;;19.50;99.90;;;;;;4226751;28;20462;-60
2023/10/23 10:11:59;;;;;;;3.42;0.80;;;19.60;99.90;;;;;;4227404;28;20031;-60
2023/10/23 10:14:01;;;;;;;3.05;1.05;;;19.60;99.90;;;;;;4226732;28;20088;-60
2023/10/23 10:16:04;;;;;;;2.45;0.90;;;19.60;99.90;;;;;;4227451;28;20047;-61
2023/10/23 10:18:06;;;;;;;3.03;1.13;;;19.70;99.90;;;;;;4226040;28;20550;-61
2023/10/23 10:20:09;;;;;;;4.63;1.15;;;19.80;99.90;;;;;;4227625;28;20414;-61
2023/10/23 10:22:13;;;;;;;2.75;1.10;;;19.90;99.90;;;;;;4229135;28;20077;-60
2023/10/23 10:24:15;;;;;;;3.88;1.10;;;20.00;99.90;;;;;;4230588;28;20392;-60
2023/10/23 10:26:16;;;;;;;5.60;1.10;;;20.00;99.90;;;;;;4229524;28;20476;-60
2023/10/23 10:28:17;;;;;;;2.15;0.60;;;20.00;99.90;;;;;;4230762;28;20032;-59
2023/10/23 10:30:43;;;;;;;7.13;0.98;;;20.00;99.90;;;;;;4229780;28;20109;-60
2023/10/23 10:32:44;;;;;;;3.67;0.70;;;20.00;99.90;;;;;;4230951;28;20036;-60